Data for 06/13/2008

Time Sea-Level Adjusted Pressure Absolute Pressure Temperature Relative Humidity Dew Point   
(mb) (inHg) (mb) (inHg) (C) (F) (%) (C) (F)
00:05 1022 30.18 851 25.13 6.1 43 75 2 35.6
00:10 1022 30.18 851 25.13 6.1 43 74 1.9 35.4
00:15 1022 30.18 851 25.13 6.1 42.9 75 2 35.5
00:20 1022 30.18 851 25.13 6 42.8 76 2.1 35.8
00:25 1022 30.18 851 25.13 6 42.9 75 2 35.6
00:30 1022 30.18 851 25.13 6.1 43 74 1.9 35.5
00:35 1022 30.18 851 25.13 6.4 43.5 73 1.9 35.4
00:40 1022 30.18 851 25.13 6.5 43.7 73 2.1 35.8
00:45 1022 30.18 851 25.13 6.3 43.4 72 1.7 35
00:50 1022 30.18 851 25.13 6.6 43.9 70 1.6 34.9
00:55 1022 30.18 851 25.13 6.8 44.3 69 1.6 34.9
01:00 1022 30.18 851 25.13 6.8 44.2 71 1.8 35.3
01:05 1022 30.18 851 25.13 6.6 44 70 1.6 34.8
01:10 1022 30.18 851 25.13 6.6 43.9 70 1.6 34.9
01:15 1022 30.18 851 25.13 6.5 43.6 70 1.4 34.6
01:20 1022 30.18 851 25.13 6.4 43.5 71 1.5 34.6
01:25 1021 30.15 851 25.13 6.3 43.3 71 1.5 34.7
01:30 1021 30.15 851 25.13 6.1 43.1 73 1.7 35.1
01:35 1021 30.15 851 25.13 6.1 43 72 1.5 34.8
01:40 1021 30.15 850 25.1 6.1 43 72 1.5 34.7
01:45 1021 30.15 850 25.1 6.1 42.9 72 1.4 34.6
01:50 1021 30.15 850 25.1 5.8 42.4 73 1.3 34.3
01:55 1021 30.15 850 25.1 5.8 42.4 72 1.2 34.2
02:00 1021 30.15 850 25.1 5.6 42.1 74 1.3 34.3
02:05 1021 30.15 850 25.1 5.2 41.4 76 1.3 34.3
02:10 1021 30.15 850 25.1 5 40.9 77 1.2 34.1
02:15 1021 30.15 850 25.1 4.9 40.7 76 1.1 33.9
02:20 1021 30.15 850 25.1 4.9 40.9 78 1.5 34.6
02:25 1021 30.15 850 25.1 4.9 40.7 78 1.4 34.4
02:30 1021 30.15 850 25.1 4.9 40.8 78 1.3 34.4
02:35 1021 30.15 850 25.1 4.9 40.8 77 1.1 34
02:40 1021 30.15 850 25.1 4.8 40.7 76 0.9 33.6
02:45 1021 30.15 850 25.1 5.1 41.2 74 0.8 33.5
02:50 1021 30.15 850 25.1 5.7 42.3 71 0.8 33.5
02:55 1021 30.15 850 25.1 6.4 43.5 69 1.1 33.9
03:00 1021 30.15 850 25.1 6.3 43.4 71 1.6 34.8
03:05 1021 30.15 850 25.1 5.9 42.5 73 1.4 34.5
03:10 1021 30.15 850 25.1 6.1 43 70 1.1 34
03:15 1021 30.15 850 25.1 6.6 43.9 69 1.3 34.3
03:20 1021 30.15 850 25.1 6.6 43.8 69 1.4 34.5
03:25 1021 30.15 850 25.1 6.4 43.5 70 1.3 34.4
03:30 1021 30.15 850 25.1 6.4 43.5 69 1.2 34.1
03:35 1021 30.15 850 25.1 6.5 43.6 68 1 33.9
03:40 1021 30.15 850 25.1 6.6 43.9 68 1.2 34.1
03:45 1021 30.15 850 25.1 6.5 43.7 69 1.3 34.4
03:50 1021 30.15 850 25.1 6.2 43.2 71 1.3 34.3
03:55 1021 30.15 850 25.1 6 42.8 71 1.2 34.2
04:00 1021 30.15 850 25.1 6 42.8 71 1.1 34
04:05 1021 30.15 850 25.1 6.2 43.1 70 1.1 33.9
04:10 1021 30.15 850 25.1 6.3 43.3 69 1 33.8
04:15 1021 30.15 850 25.1 6.2 43.2 69 1.1 33.9
04:20 1021 30.15 850 25.1 6.3 43.3 68 0.8 33.5
04:25 1021 30.15 850 25.1 6.6 43.9 67 0.8 33.5
04:30 1021 30.15 850 25.1 6.6 44 66 0.8 33.4
04:35 1021 30.15 850 25.1 6.7 44.1 66 0.8 33.4
04:40 1021 30.15 850 25.1 6.6 43.8 66 0.8 33.4
04:45 1021 30.15 850 25.1 6.4 43.4 67 0.8 33.4
04:50 1020 30.12 850 25.1 6.3 43.3 68 0.8 33.4
04:55 1021 30.15 850 25.1 6.1 43 69 0.8 33.4
05:00 1020 30.12 850 25.1 6.1 43 68 0.7 33.3
05:05 1020 30.12 850 25.1 6.2 43.1 68 0.8 33.4
05:10 1020 30.12 850 25.1 6.1 43 69 0.8 33.4
05:15 1020 30.12 850 25.1 6 42.8 69 0.8 33.4
05:20 1020 30.12 850 25.1 6 42.7 70 0.9 33.5
05:25 1021 30.15 850 25.1 5.9 42.6 70 0.9 33.6
05:30 1021 30.15 850 25.1 6 42.7 70 0.8 33.5
05:35 1021 30.15 850 25.1 6 42.9 68 0.7 33.2
05:40 1021 30.15 850 25.1 6.4 43.5 66 0.5 33
05:45 1021 30.15 850 25.1 6.8 44.3 64 0.5 33
05:50 1021 30.15 850 25.1 7.1 44.7 63 0.4 32.8
05:55 1021 30.15 850 25.1 7.3 45.1 61 0.2 32.4
06:00 1021 30.15 850 25.1 7.3 45.1 61 0.3 32.5
06:05 1021 30.15 850 25.1 7.3 45.2 60 0.2 32.3
06:10 1021 30.15 850 25.1 7.2 45 62 0.4 32.7
06:15 1021 30.15 850 25.1 6.9 44.4 63 0.3 32.5
06:20 1021 30.15 850 25.1 6.9 44.5 63 0.3 32.5
06:25 1021 30.15 850 25.1 7 44.5 62 0.2 32.4
06:30 1021 30.15 850 25.1 7.2 44.9 62 0.3 32.5
06:35 1021 30.15 850 25.1 7.3 45.1 60 0.2 32.3
06:40 1021 30.15 850 25.1 7.6 45.7 59 0.2 32.3
06:45 1021 30.15 850 25.1 7.8 46 59 0.3 32.5
06:50 1021 30.15 850 25.1 7.8 46 60 0.5 32.8
06:55 1021 30.15 850 25.1 7.9 46.2 59 0.5 32.9
07:00 1021 30.15 850 25.1 8 46.4 58 0.3 32.5
07:05 1021 30.15 850 25.1 8.1 46.5 58 0.3 32.6
07:10 1021 30.15 850 25.1 8.1 46.6 58 0.4 32.7
07:15 1021 30.15 850 25.1 8.5 47.3 57 0.4 32.7
07:20 1021 30.15 850 25.1 8.8 47.9 56 0.6 33.1
07:25 1021 30.15 850 25.1 9.1 48.4 56 0.7 33.3
07:30 1021 30.15 850 25.1 9.3 48.7 56 1 33.8
07:35 1021 30.15 850 25.1 9.5 49.2 56 1.3 34.4
07:40 1021 30.15 850 25.1 9.7 49.4 56 1.3 34.4
07:45 1021 30.15 850 25.1 9.9 49.8 56 1.5 34.7
07:50 1021 30.15 850 25.1 10.4 50.7 55 1.8 35.2
07:55 1021 30.15 850 25.1 10.7 51.2 54 1.9 35.4
08:00 1021 30.15 850 25.1 11 51.7 54 2.2 35.9
08:05 1021 30.15 850 25.1 11.3 52.4 53 2.2 36
08:10 1021 30.15 850 25.1 11.6 52.8 52 2.1 35.7
08:15 1021 30.15 850 25.1 11.9 53.4 50 1.9 35.5
08:20 1021 30.15 850 25.1 12.3 54.1 50 2.2 35.9
08:25 1021 30.15 850 25.1 12.4 54.2 49 1.9 35.4
08:30 1021 30.15 850 25.1 12.9 55.1 47 1.9 35.4
08:35 1021 30.15 850 25.1 13 55.3 46 1.8 35.3
08:40 1021 30.15 850 25.1 12.7 54.8 47 1.7 35
08:45 1021 30.15 850 25.1 12.7 54.9 46 1.5 34.7
08:50 1021 30.15 850 25.1 13 55.5 45 1.4 34.6
08:55 1021 30.15 850 25.1 12.7 54.9 45 1.1 34
09:00 1021 30.15 850 25.1 12.8 55 45 1.1 33.9
09:05 1021 30.15 850 25.1 13 55.3 45 1.3 34.3
09:10 1021 30.15 850 25.1 13.8 56.9 43 1.5 34.7
09:15 1021 30.15 850 25.1 14 57.2 42 1.5 34.8
09:20 1021 30.15 850 25.1 13.9 57 44 1.9 35.3
09:25 1021 30.15 850 25.1 13.1 55.5 46 1.7 35.1
09:30 1021 30.15 850 25.1 12.8 55.1 45 1.3 34.4
09:35 1021 30.15 850 25.1 13.9 56.9 43 1.7 35
09:40 1020 30.12 850 25.1 14.3 57.7 43 2.1 35.7
09:45 1020 30.12 850 25.1 14.7 58.4 41 1.7 35.1
09:50 1020 30.12 850 25.1 14.4 57.9 43 2.1 35.7
09:55 1020 30.12 850 25.1 15 59 42 2.1 35.8
10:00 1020 30.12 849 25.07 15.7 60.3 38 1.6 34.9
10:05 1020 30.12 849 25.07 15.1 59.2 40 1.7 35.1
10:10 1020 30.12 849 25.07 14.7 58.5 41 1.7 35.1
10:15 1020 30.12 849 25.07 14.8 58.6 42 2 35.7
10:20 1020 30.12 849 25.07 15.4 59.8 41 2.2 35.9
10:25 1020 30.12 849 25.07 15.7 60.3 38 1.7 35
10:30 1020 30.12 849 25.07 15.9 60.7 33 -0.1 31.9
10:35 1020 30.12 849 25.07 16 60.8 33 -0.3 31.4
10:40 1020 30.12 849 25.07 15.9 60.5 33 -0.3 31.4
10:45 1020 30.12 849 25.07 15.8 60.4 33 -0.2 31.6
10:50 1020 30.12 849 25.07 15.6 60.2 34 -0 32
10:55 1020 30.12 849 25.07 15.6 60.1 32 -0.9 30.5
11:00 1020 30.12 849 25.07 15.9 60.7 31 -1 30.3
11:05 1020 30.12 849 25.07 16.2 61.2 32 -0.5 31.1
11:10 1020 30.12 849 25.07 16.3 61.3 34 0.5 32.9
11:15 1020 30.12 849 25.07 16 60.7 34 0.3 32.5
11:20 1020 30.12 849 25.07 16.2 61.2 31 -0.7 30.8
11:25 1020 30.12 849 25.07 16.6 61.8 33 0.2 32.4
11:30 1019 30.09 849 25.07 16.6 61.9 32 0.2 32.3
11:35 1019 30.09 849 25.07 17.1 62.8 32 0.3 32.6
11:40 1019 30.09 849 25.07 16.7 62 31 -0.6 31
11:45 1019 30.09 849 25.07 16.8 62.3 31 -0.5 31.2
11:50 1019 30.09 849 25.07 16.8 62.2 32 0.1 32.1
11:55 1019 30.09 849 25.07 16.9 62.4 31 -0.1 31.9
12:00 1019 30.09 849 25.07 17.4 63.2 31 0.2 32.4
12:05 1020 30.12 849 25.07 17.7 63.8 29 -0.5 31.1
12:10 1020 30.12 849 25.07 17.8 64 30 0 32
12:15 1020 30.12 849 25.07 17.6 63.8 29 -0.3 31.5
12:20 1020 30.12 849 25.07 17.2 63 30 -0.2 31.6
12:25 1020 30.12 849 25.07 18 64.4 28 -0.7 30.7
12:30 1020 30.12 849 25.07 18.4 65.1 28 -0.5 31.2
12:35 1020 30.12 849 25.07 18.2 64.8 28 -0.5 31
12:40 1020 30.12 849 25.07 18.2 64.7 29 0 32
12:45 1020 30.12 849 25.07 18.8 65.9 27 -0.7 30.8
12:50 1020 30.12 849 25.07 19.5 67.1 26 -0.2 31.6
12:55 1020 30.12 849 25.07 19.2 66.6 27 -0.1 31.9
13:00 1020 30.12 849 25.07 19 66.3 28 0 32.1
13:05 1020 30.12 849 25.07 18.7 65.6 30 0.7 33.3
13:10 1020 30.12 849 25.07 17.7 63.8 29 -0.5 31.1
13:15 1020 30.12 849 25.07 17.6 63.7 29 -0.4 31.3
13:20 1020 30.12 849 25.07 17.4 63.4 28 -0.9 30.3
13:25 1020 30.12 849 25.07 17.2 63 29 -1 30.3
13:30 1020 30.12 849 25.07 17.1 62.8 30 -0.4 31.3
13:35 1020 30.12 849 25.07 17.4 63.4 29 -0.6 30.9
13:40 1019 30.09 849 25.07 18.1 64.6 28 -0.4 31.3
13:45 1019 30.09 849 25.07 19 66.2 28 0.3 32.6
13:50 1019 30.09 849 25.07 19.2 66.5 27 -0 32
13:55 1019 30.09 849 25.07 18.8 65.8 28 -0 31.9
14:00 1019 30.09 849 25.07 18.6 65.5 27 -0.6 30.9
14:05 1019 30.09 849 25.07 18.3 65 29 0.1 32.1
14:10 1019 30.09 849 25.07 18.1 64.6 29 -0.1 31.8
14:15 1019 30.09 848 25.04 18.5 65.2 28 -0.4 31.2
14:20 1019 30.09 848 25.04 18.7 65.6 28 -0.3 31.5
14:25 1019 30.09 848 25.04 18.8 65.9 27 -0.4 31.2
14:30 1019 30.09 848 25.04 19.3 66.7 25 -0.9 30.5
14:35 1019 30.09 848 25.04 19.6 67.2 24 -1.2 29.9
14:40 1019 30.09 848 25.04 19.6 67.3 25 -0.8 30.6
14:45 1019 30.09 848 25.04 19.3 66.7 27 -0.1 31.8
14:50 1019 30.09 848 25.04 19.6 67.2 28 0.8 33.5
14:55 1019 30.09 848 25.04 20.2 68.3 26 0.3 32.6
15:00 1019 30.09 848 25.04 19.9 67.8 27 0.7 33.3
15:05 1019 30.09 848 25.04 19.4 67 28 0.6 33.2
15:10 1019 30.09 848 25.04 19 66.2 30 1.1 33.9
15:15 1019 30.09 848 25.04 18.9 66 30 1 33.8
15:20 1019 30.09 848 25.04 19.1 66.4 28 0.5 32.9
15:25 1019 30.09 848 25.04 19.2 66.5 30 1.2 34.1
15:30 1019 30.09 848 25.04 19.2 66.6 31 1.7 35
15:35 1019 30.09 848 25.04 19.2 66.6 31 1.8 35.2
15:40 1018 30.06 848 25.04 19.5 67 28 0.6 33.1
15:45 1018 30.06 848 25.04 19.4 67 29 1.1 34
15:50 1018 30.06 848 25.04 19.3 66.7 29 0.8 33.4
15:55 1018 30.06 848 25.04 19.5 67 28 0.6 33
16:00 1018 30.06 847 25.01 20.2 68.3 26 0.5 32.9
16:05 1018 30.06 847 25.01 20.1 68.2 27 0.9 33.7
16:10 1018 30.06 847 25.01 19.9 67.9 28 1 33.9
16:15 1018 30.06 847 25.01 19.9 67.8 29 1.3 34.3
16:20 1018 30.06 847 25.01 19.6 67.2 29 1.3 34.3
16:25 1018 30.06 847 25.01 19.3 66.7 28 0.5 33
16:30 1018 30.06 847 25.01 19.9 67.8 28 0.8 33.5
16:35 1018 30.06 847 25.01 20.5 68.9 26 0.8 33.4
16:40 1018 30.06 847 25.01 20.8 69.5 26 1 33.8
16:45 1018 30.06 847 25.01 20.4 68.8 27 1 33.8
16:50 1018 30.06 847 25.01 20.3 68.5 28 1.6 34.8
16:55 1018 30.06 847 25.01 20.8 69.4 27 1.5 34.7
17:00 1018 30.06 847 25.01 21.3 70.3 26 1.3 34.4
17:05 1018 30.06 847 25.01 21 69.8 27 1.5 34.6
17:10 1018 30.06 847 25.01 20.4 68.8 27 1 33.9
17:15 1018 30.06 847 25.01 20.2 68.4 27 0.7 33.3
17:20 1018 30.06 847 25.01 20.7 69.2 26 0.8 33.4
17:25 1018 30.06 847 25.01 20.4 68.8 27 0.9 33.7
17:30 1018 30.06 847 25.01 20.9 69.6 26 0.8 33.5
17:35 1018 30.06 847 25.01 21 69.8 26 0.9 33.5
17:40 1018 30.06 847 25.01 20.9 69.6 25 0.3 32.5
17:45 1018 30.06 847 25.01 20.5 68.8 26 0.4 32.7
17:50 1018 30.06 847 25.01 20.5 68.9 26 0.4 32.6
17:55 1018 30.06 847 25.01 21 69.7 25 0.3 32.5
18:00 1018 30.06 847 25.01 20.9 69.6 26 0.7 33.2
18:05 1018 30.06 847 25.01 20.7 69.3 26 0.9 33.7
18:10 1018 30.06 847 25.01 20.6 69.1 27 1 33.8
18:15 1018 30.06 847 25.01 21.2 70.2 27 1.6 34.9
18:20 1018 30.06 847 25.01 20.7 69.2 27 1.2 34.1
18:25 1018 30.06 847 25.01 20.4 68.7 27 1.1 34
18:30 1018 30.06 847 25.01 20.4 68.8 27 0.9 33.7
18:35 1018 30.06 847 25.01 20.4 68.6 28 1.3 34.3
18:40 1018 30.06 847 25.01 19.9 67.9 29 1.5 34.8
18:45 1018 30.06 847 25.01 20.1 68.1 29 1.8 35.3
18:50 1018 30.06 847 25.01 20.1 68.2 29 1.8 35.3
18:55 1018 30.06 847 25.01 20.4 68.8 30 2.6 36.7
19:00 1017 30.03 847 25.01 20.3 68.5 30 2.3 36.1
19:05 1017 30.03 847 25.01 19.8 67.7 30 1.9 35.4
19:10 1017 30.03 847 25.01 20 67.9 31 2.4 36.4
19:15 1017 30.03 847 25.01 19.8 67.7 31 2.3 36.1
19:20 1017 30.03 847 25.01 19.7 67.5 31 2.2 36
19:25 1017 30.03 847 25.01 19.5 67 32 2.4 36.3
19:30 1017 30.03 847 25.01 19.4 66.8 32 2.4 36.2
19:35 1017 30.03 847 25.01 19.4 66.9 31 1.9 35.5
19:40 1017 30.03 847 25.01 19.4 66.9 31 1.8 35.2
19:45 1017 30.03 847 25.01 19.4 66.9 31 1.9 35.5
19:50 1017 30.03 847 25.01 19.5 67 31 2.1 35.7
19:55 1017 30.03 847 25.01 19.4 67 31 2.1 35.7
20:00 1017 30.03 847 25.01 19.5 67 31 2.2 36
20:05 1017 30.03 847 25.01 19.3 66.8 32 2.2 36
20:10 1017 30.03 847 25.01 19.2 66.6 32 2.1 35.8
20:15 1017 30.03 847 25.01 19.1 66.4 31 1.8 35.2
20:20 1017 30.03 847 25.01 19 66.3 32 2.1 35.8
20:25 1017 30.03 847 25.01 19.1 66.3 32 1.9 35.5
20:30 1018 30.06 847 25.01 19.1 66.4 31 1.9 35.5
20:35 1018 30.06 847 25.01 19 66.2 31 1.5 34.7
20:40 1018 30.06 847 25.01 19 66.2 30 1.3 34.4
20:45 1018 30.06 847 25.01 19.1 66.3 31 1.8 35.2
20:50 1018 30.06 847 25.01 19 66.2 32 1.9 35.5
20:55 1018 30.06 847 25.01 18.9 66 33 2.4 36.3
21:00 1018 30.06 847 25.01 18.5 65.3 43 6 42.7
21:05 1018 30.06 847 25.01 17.9 64.3 42 5 41
21:10 1018 30.06 847 25.01 17.8 64.1 41 4.6 40.2
21:15 1018 30.06 847 25.01 17.8 64 41 4.6 40.3
21:20 1018 30.06 847 25.01 17.7 63.8 42 4.6 40.3
21:25 1018 30.06 847 25.01 17.7 63.8 41 4.3 39.7
21:30 1018 30.06 847 25.01 17.7 63.8 41 4.4 40
21:35 1018 30.06 847 25.01 17.7 63.8 39 3.6 38.5
21:40 1018 30.06 847 25.01 17.6 63.7 40 3.9 38.9
21:45 1018 30.06 847 25.01 17.2 62.9 46 5.5 41.9
21:50 1018 30.06 847 25.01 16.3 61.3 50 5.8 42.5
21:55 1018 30.06 847 25.01 15.7 60.3 51 5.8 42.4
22:00 1018 30.06 847 25.01 15.4 59.6 53 6 42.8
22:05 1018 30.06 847 25.01 15.2 59.3 53 5.6 42.1
22:10 1018 30.06 847 25.01 14.9 58.7 55 6 42.7
22:15 1018 30.06 847 25.01 14.6 58.2 53 5.3 41.5
22:20 1018 30.06 847 25.01 14.4 57.9 54 5.4 41.6
22:25 1018 30.06 847 25.01 14.1 57.3 54 5.1 41.2
22:30 1018 30.06 847 25.01 13.8 56.8 55 4.9 40.7
22:35 1018 30.06 847 25.01 13.7 56.6 55 4.9 40.9
22:40 1018 30.06 847 25.01 13.6 56.5 55 4.8 40.7
22:45 1018 30.06 847 25.01 13.4 56.1 55 4.6 40.3
22:50 1018 30.06 847 25.01 13.3 55.9 56 4.7 40.4
22:55 1018 30.06 847 25.01 13.3 55.9 55 4.4 40
23:00 1018 30.06 847 25.01 13.2 55.8 55 4.4 39.9
23:05 1018 30.06 847 25.01 13.2 55.7 55 4.4 39.9
23:10 1018 30.06 847 25.01 13 55.4 55 4.3 39.8
23:15 1018 30.06 847 25.01 12.8 55 55 4.1 39.3
23:20 1018 30.06 847 25.01 12.6 54.7 56 4.1 39.3
23:25 1018 30.06 847 25.01 12.5 54.5 56 4 39.2
23:30 1018 30.06 847 25.01 12.4 54.4 56 3.9 39
23:35 1018 30.06 847 25.01 12.3 54.2 56 3.9 39
23:40 1018 30.06 847 25.01 12.2 54 56 3.8 38.8
23:45 1018 30.06 847 25.01 12.2 53.9 56 3.7 38.7
23:50 1018 30.06 847 25.01 12.1 53.9 56 3.6 38.6
23:55 1018 30.06 847 25.01 12.1 53.8 56 3.7 38.6
24:00 1018 30.06 847 25.01 11.6 52.9 61 4.5 40.1